Skip Navigation Links
NOAA logo - Click to go to the NOAA homepage
NOAA's National Weather Service
Alaska Aviation Weather Unit
  NWS logo - Click to go to the NWS homepage
Left Navbar Graphic     12 AKDT = 20 GMT

   
NOAA is celebrating 200 years of science, service, and stewardship. Visit the NOAA 200th celebration Web site to learn more.
USA.gov is the U.S. Government's official Web portal to all Federal, state and local government Web resources and services.
Facebook
NWS on Facebook

Important Change Regarding the AAWU Web Presence

 

Over the last several months, the AAWU has been working to navigate its webpages to a nationally supported server. Security, as well as other needs, have necessitated the change.  We have been given an extension for the site changeover while we diligently work at addressing feedback received. As of July 14, 2017, aawu.arh.noaa.gov will be discontinued. The new AAWU web address is weather.gov/aawu. It is now live and will run in-parallel with the old site until it is discontinued on July 14, 2017. Please continue to send any feedback or questions regarding the new webpages to nws.ar.aawu.webauthors@noaa.gov.  Thank you for your patience during this time of transition.
AAWU Home :: Display TAF Add Bookmark
TAF PANC 252042Z 2521/2624 VRB04KT P6SM SCT008 SCT015 OVC025
     FM260900 VRB03KT P6SM -RA SCT005 OVC015
     FM262200 VRB04KT P6SM VCSH SCT015 BKN025=

PANC 251439Z 00000KT 8SM BKN005 BKN011 OVC026 14/13 A3000= SPECI PANC 251439Z 00000KT 8SM BKN005 BKN011 OVC026 14/13 A3000 RMK AO2 RAB01E20 P0000 T01390128= METAR PANC 251453Z 00000KT 8SM -RA BKN005 BKN011 OVC026 14/13 A3000= METAR PANC 251553Z 25004KT 8SM -RA BKN005 BKN011 OVC026 13/13 A3000= METAR PANC 251653Z 24004KT 5SM -RA BR SCT003 OVC009 13/13 A3000= METAR PANC 251753Z 29004KT 5SM -RA BR SCT003 BKN008 OVC020 13/12 A3000= PANC 251817Z 31004KT 6SM -RA BR SCT005 BKN010 OVC027 13/12 A2999= SPECI PANC 251817Z 31004KT 6SM -RA BR SCT005 BKN010 OVC027 13/12 A2999 RMK AO2 P0001 T01330122= METAR PANC 251853Z 00000KT 6SM BR SCT005 BKN010 OVC027 14/13 A2999= METAR PANC 251953Z 00000KT 6SM BR SCT005 BKN010 OVC027 15/13 A2998 RMK AO2 SLP154 T01500128= PANC 251955Z 04003KT 9SM BKN008 OVC042 15/13 A2998= SPECI PANC 251955Z 04003KT 9SM BKN008 OVC042 15/13 A2998 RMK AO2 T01500128=
 Alaska TAF Map

NOAA's National Weather Service
Alaska Aviation Weather Unit
6930 Sand Lake Road
Anchorage, AK 99502-1845
Disclaimer
Credits
Glossary
Privacy Policy
About Us
Career Opportunities
Contact AAWU Internet Services Site last modified: April, 17th 2012